Terminal Aerodrome Forecast
Issued by NWS Glasgow, MT

Home | Current Version | Previous Version | Text Only | Print | Product List | Glossary On
Versions: 1 2 3 4 5 6 7 8 9 10 11 12 13
394
FTUS45 KGGW 221720
TAFGGW
TAF
KGGW 221720Z 2218/2318 29009KT P6SM FEW150
     FM230100 32009KT P6SM SCT110
     FM230300 36007KT P6SM SCT110
     FM231000 36006KT P6SM BKN070=

USA.gov is the U.S. government's official web portal to all federal, state and local government web resources and services.